<?xml version="1.0" encoding="UTF-8" standalone="no" ?>
<gpx xmlns="http://www.topografix.com/GPX/1/1" xmlns:xsi="http://www.w3.org/2001/XMLSchema-instance" xsi:schemaLocation="http://www.topografix.com/GPX/1/1 http://www.topografix.com/GPX/1/1/gpx.xsd" version="1.1" creator="VisuGPX - https://www.visugpx.com">
  <metadata>
    <name>PAINBLANC - Marche de printemps 2022 - 14 kms</name>
  </metadata>
  <trk>
    <name><![CDATA[PAINBLANC - Marche de printemps 2022 - 14 kms]]></name>
    <extensions>
      <line xmlns="http://www.topografix.com/GPX/gpx_style/0/2">
        <color>0000FF</color>
        <width>6</width>
          <extensions>
            <sens>1</sens>
          </extensions>
      </line>
    </extensions>
    <trkseg>
      <trkpt lat="47.14923" lon="4.62573">
        <ele>408.89832026739</ele>
        <time>2022-03-23T17:17:44.000Z</time>
      </trkpt>
      <trkpt lat="47.14918" lon="4.62602">
        <ele>408.99098881504</ele>
        <time>2022-03-23T17:17:44.027Z</time>
      </trkpt>
      <trkpt lat="47.14913" lon="4.62624">
        <ele>409.03803306006</ele>
        <time>2022-03-23T17:17:44.075Z</time>
      </trkpt>
      <trkpt lat="47.14899" lon="4.6265">
        <ele>409.06786739761</ele>
        <time>2022-03-23T17:17:44.153Z</time>
      </trkpt>
      <trkpt lat="47.14881" lon="4.62672">
        <ele>409.23374617863</ele>
        <time>2022-03-23T17:17:44.263Z</time>
      </trkpt>
      <trkpt lat="47.14872" lon="4.62675">
        <ele>409.40472543452</ele>
        <time>2022-03-23T17:17:44.385Z</time>
      </trkpt>
      <trkpt lat="47.14859" lon="4.62674">
        <ele>409.54675490246</ele>
        <time>2022-03-23T17:17:44.524Z</time>
      </trkpt>
      <trkpt lat="47.14835" lon="4.62679">
        <ele>409.79043932236</ele>
        <time>2022-03-23T17:17:44.696Z</time>
      </trkpt>
      <trkpt lat="47.14787" lon="4.62707">
        <ele>410.0922258307</ele>
        <time>2022-03-23T17:17:44.937Z</time>
      </trkpt>
      <trkpt lat="47.14751" lon="4.62724">
        <ele>410.40920823555</ele>
        <time>2022-03-23T17:17:45.228Z</time>
      </trkpt>
      <trkpt lat="47.14724" lon="4.62733">
        <ele>410.88327994702</ele>
        <time>2022-03-23T17:17:45.556Z</time>
      </trkpt>
      <trkpt lat="47.14702" lon="4.62737">
        <ele>411.4945659881</ele>
        <time>2022-03-23T17:17:45.914Z</time>
      </trkpt>
      <trkpt lat="47.147" lon="4.62743">
        <ele>412.23096078454</ele>
        <time>2022-03-23T17:17:46.278Z</time>
      </trkpt>
      <trkpt lat="47.14683" lon="4.62752">
        <ele>413.14672061312</ele>
        <time>2022-03-23T17:17:46.666Z</time>
      </trkpt>
      <trkpt lat="47.14667" lon="4.6276">
        <ele>414.28744811361</ele>
        <time>2022-03-23T17:17:47.076Z</time>
      </trkpt>
      <trkpt lat="47.14664" lon="4.62756">
        <ele>415.51681612371</ele>
        <time>2022-03-23T17:17:47.492Z</time>
      </trkpt>
      <trkpt lat="47.14661" lon="4.62759">
        <ele>416.95163924934</ele>
        <time>2022-03-23T17:17:47.913Z</time>
      </trkpt>
      <trkpt lat="47.1465" lon="4.62775">
        <ele>418.76861254903</ele>
        <time>2022-03-23T17:17:48.354Z</time>
      </trkpt>
      <trkpt lat="47.14639" lon="4.62808">
        <ele>420.90820118282</ele>
        <time>2022-03-23T17:17:48.829Z</time>
      </trkpt>
      <trkpt lat="47.14639" lon="4.62825">
        <ele>422.98086213315</ele>
        <time>2022-03-23T17:17:49.319Z</time>
      </trkpt>
      <trkpt lat="47.14642" lon="4.6284">
        <ele>424.97507847587</ele>
        <time>2022-03-23T17:17:49.823Z</time>
      </trkpt>
      <trkpt lat="47.14645" lon="4.62859">
        <ele>426.92936980287</ele>
        <time>2022-03-23T17:17:50.345Z</time>
      </trkpt>
      <trkpt lat="47.14658" lon="4.62917">
        <ele>428.96769756475</ele>
        <time>2022-03-23T17:17:50.923Z</time>
      </trkpt>
      <trkpt lat="47.1466" lon="4.62933">
        <ele>430.54319477636</ele>
        <time>2022-03-23T17:17:51.516Z</time>
      </trkpt>
      <trkpt lat="47.14658" lon="4.62941">
        <ele>431.8622340492</ele>
        <time>2022-03-23T17:17:52.116Z</time>
      </trkpt>
      <trkpt lat="47.14655" lon="4.62948">
        <ele>432.95736008371</ele>
        <time>2022-03-23T17:17:52.724Z</time>
      </trkpt>
      <trkpt lat="47.1465" lon="4.6295">
        <ele>433.87316747107</ele>
        <time>2022-03-23T17:17:53.339Z</time>
      </trkpt>
      <trkpt lat="47.14642" lon="4.62949">
        <ele>434.68316688752</ele>
        <time>2022-03-23T17:17:53.964Z</time>
      </trkpt>
      <trkpt lat="47.14618" lon="4.62938">
        <ele>435.47382724145</ele>
        <time>2022-03-23T17:17:54.623Z</time>
      </trkpt>
      <trkpt lat="47.14605" lon="4.62932">
        <ele>436.23747661573</ele>
        <time>2022-03-23T17:17:55.300Z</time>
      </trkpt>
      <trkpt lat="47.14591" lon="4.6293">
        <ele>437.07188803637</ele>
        <time>2022-03-23T17:17:55.996Z</time>
      </trkpt>
      <trkpt lat="47.14577" lon="4.6293">
        <ele>437.96480428887</ele>
        <time>2022-03-23T17:17:56.711Z</time>
      </trkpt>
      <trkpt lat="47.14555" lon="4.62942">
        <ele>439.03965384986</ele>
        <time>2022-03-23T17:17:57.457Z</time>
      </trkpt>
      <trkpt lat="47.1454" lon="4.62956">
        <ele>440.20711866972</ele>
        <time>2022-03-23T17:17:58.227Z</time>
      </trkpt>
      <trkpt lat="47.14523" lon="4.62964">
        <ele>441.4553768019</ele>
        <time>2022-03-23T17:17:59.021Z</time>
      </trkpt>
      <trkpt lat="47.14505" lon="4.62968">
        <ele>442.75982516605</ele>
        <time>2022-03-23T17:17:59.839Z</time>
      </trkpt>
      <trkpt lat="47.14491" lon="4.62974">
        <ele>444.06454222373</ele>
        <time>2022-03-23T17:18:00.676Z</time>
      </trkpt>
      <trkpt lat="47.14462" lon="4.62988">
        <ele>445.39625783306</ele>
        <time>2022-03-23T17:18:01.554Z</time>
      </trkpt>
      <trkpt lat="47.14438" lon="4.63004">
        <ele>446.76391141967</ele>
        <time>2022-03-23T17:18:02.467Z</time>
      </trkpt>
      <trkpt lat="47.14427" lon="4.63015">
        <ele>447.94512069546</ele>
        <time>2022-03-23T17:18:03.398Z</time>
      </trkpt>
      <trkpt lat="47.14405" lon="4.63038">
        <ele>449.17339847104</ele>
        <time>2022-03-23T17:18:04.365Z</time>
      </trkpt>
      <trkpt lat="47.14384" lon="4.6307">
        <ele>450.34608330855</ele>
        <time>2022-03-23T17:18:05.372Z</time>
      </trkpt>
      <trkpt lat="47.14368" lon="4.63102">
        <ele>451.51116989399</ele>
        <time>2022-03-23T17:18:06.416Z</time>
      </trkpt>
      <trkpt lat="47.1435" lon="4.63147">
        <ele>452.82650782433</ele>
        <time>2022-03-23T17:18:07.507Z</time>
      </trkpt>
      <trkpt lat="47.14329" lon="4.63201">
        <ele>454.04576463643</ele>
        <time>2022-03-23T17:18:08.655Z</time>
      </trkpt>
      <trkpt lat="47.14308" lon="4.63257">
        <ele>455.32138623354</ele>
        <time>2022-03-23T17:18:09.861Z</time>
      </trkpt>
      <trkpt lat="47.14282" lon="4.63319">
        <ele>456.77090637619</ele>
        <time>2022-03-23T17:18:11.133Z</time>
      </trkpt>
      <trkpt lat="47.14277" lon="4.63329">
        <ele>458.0761178428</ele>
        <time>2022-03-23T17:18:12.416Z</time>
      </trkpt>
      <trkpt lat="47.14262" lon="4.63371">
        <ele>459.39014068869</ele>
        <time>2022-03-23T17:18:13.742Z</time>
      </trkpt>
      <trkpt lat="47.14256" lon="4.63397">
        <ele>460.6771154238</ele>
        <time>2022-03-23T17:18:15.093Z</time>
      </trkpt>
      <trkpt lat="47.14247" lon="4.63434">
        <ele>461.91290573145</ele>
        <time>2022-03-23T17:18:16.480Z</time>
      </trkpt>
      <trkpt lat="47.14222" lon="4.63512">
        <ele>463.08043819848</ele>
        <time>2022-03-23T17:18:17.946Z</time>
      </trkpt>
      <trkpt lat="47.14207" lon="4.63558">
        <ele>463.98414975738</ele>
        <time>2022-03-23T17:18:19.458Z</time>
      </trkpt>
      <trkpt lat="47.1419" lon="4.63626">
        <ele>464.77535554332</ele>
        <time>2022-03-23T17:18:21.036Z</time>
      </trkpt>
      <trkpt lat="47.14176" lon="4.63695">
        <ele>465.37179984123</ele>
        <time>2022-03-23T17:18:22.679Z</time>
      </trkpt>
      <trkpt lat="47.14162" lon="4.63746">
        <ele>465.71493073585</ele>
        <time>2022-03-23T17:18:24.372Z</time>
      </trkpt>
      <trkpt lat="47.14103" lon="4.63915">
        <ele>465.8215747054</ele>
        <time>2022-03-23T17:18:26.238Z</time>
      </trkpt>
      <trkpt lat="47.1403" lon="4.64129">
        <ele>465.79152678197</ele>
        <time>2022-03-23T17:18:28.322Z</time>
      </trkpt>
      <trkpt lat="47.14016" lon="4.64184">
        <ele>466.10691534949</ele>
        <time>2022-03-23T17:18:30.460Z</time>
      </trkpt>
      <trkpt lat="47.1401" lon="4.64237">
        <ele>466.60937207037</ele>
        <time>2022-03-23T17:18:32.646Z</time>
      </trkpt>
      <trkpt lat="47.14008" lon="4.64264">
        <ele>467.46306807297</ele>
        <time>2022-03-23T17:18:34.857Z</time>
      </trkpt>
      <trkpt lat="47.14009" lon="4.64314">
        <ele>468.71328846392</ele>
        <time>2022-03-23T17:18:37.114Z</time>
      </trkpt>
      <trkpt lat="47.14009" lon="4.64351">
        <ele>470.57551810028</ele>
        <time>2022-03-23T17:18:39.404Z</time>
      </trkpt>
      <trkpt lat="47.14011" lon="4.64406">
        <ele>473.07123753161</ele>
        <time>2022-03-23T17:18:41.744Z</time>
      </trkpt>
      <trkpt lat="47.14012" lon="4.64438">
        <ele>476.01157666846</ele>
        <time>2022-03-23T17:18:44.114Z</time>
      </trkpt>
      <trkpt lat="47.14019" lon="4.64481">
        <ele>479.4730763351</ele>
        <time>2022-03-23T17:18:46.524Z</time>
      </trkpt>
      <trkpt lat="47.14035" lon="4.64537">
        <ele>483.44954939746</ele>
        <time>2022-03-23T17:18:48.989Z</time>
      </trkpt>
      <trkpt lat="47.14038" lon="4.64555">
        <ele>486.83035836866</ele>
        <time>2022-03-23T17:18:51.471Z</time>
      </trkpt>
      <trkpt lat="47.14041" lon="4.64608">
        <ele>489.82734394788</ele>
        <time>2022-03-23T17:18:54.001Z</time>
      </trkpt>
      <trkpt lat="47.14055" lon="4.64674">
        <ele>492.38476099956</ele>
        <time>2022-03-23T17:18:56.594Z</time>
      </trkpt>
      <trkpt lat="47.14056" lon="4.64678">
        <ele>496.41811898408</ele>
        <time>2022-03-23T17:18:59.191Z</time>
      </trkpt>
      <trkpt lat="47.14057" lon="4.64683">
        <ele>498.0582772638</ele>
        <time>2022-03-23T17:19:01.793Z</time>
      </trkpt>
      <trkpt lat="47.14047" lon="4.64677">
        <ele>499.53552233319</ele>
        <time>2022-03-23T17:19:04.409Z</time>
      </trkpt>
      <trkpt lat="47.14027" lon="4.64674">
        <ele>501.09428723215</ele>
        <time>2022-03-23T17:19:07.052Z</time>
      </trkpt>
      <trkpt lat="47.14013" lon="4.64676">
        <ele>502.70428716843</ele>
        <time>2022-03-23T17:19:09.714Z</time>
      </trkpt>
      <trkpt lat="47.14002" lon="4.64679">
        <ele>504.44188437516</ele>
        <time>2022-03-23T17:19:12.391Z</time>
      </trkpt>
      <trkpt lat="47.13965" lon="4.64672">
        <ele>506.42444071613</ele>
        <time>2022-03-23T17:19:15.118Z</time>
      </trkpt>
      <trkpt lat="47.13953" lon="4.64673">
        <ele>508.37995689442</ele>
        <time>2022-03-23T17:19:17.861Z</time>
      </trkpt>
      <trkpt lat="47.13934" lon="4.64683">
        <ele>510.57652746021</ele>
        <time>2022-03-23T17:19:20.631Z</time>
      </trkpt>
      <trkpt lat="47.139" lon="4.64726">
        <ele>513.36923045792</ele>
        <time>2022-03-23T17:19:23.461Z</time>
      </trkpt>
      <trkpt lat="47.13892" lon="4.64743">
        <ele>515.96131866433</ele>
        <time>2022-03-23T17:19:26.309Z</time>
      </trkpt>
      <trkpt lat="47.13888" lon="4.64748">
        <ele>518.34381522603</ele>
        <time>2022-03-23T17:19:29.164Z</time>
      </trkpt>
      <trkpt lat="47.13863" lon="4.64761">
        <ele>520.64449748946</ele>
        <time>2022-03-23T17:19:32.055Z</time>
      </trkpt>
      <trkpt lat="47.1384" lon="4.64777">
        <ele>522.85661341806</ele>
        <time>2022-03-23T17:19:34.980Z</time>
      </trkpt>
      <trkpt lat="47.13831" lon="4.6479">
        <ele>524.7522812138</ele>
        <time>2022-03-23T17:19:37.922Z</time>
      </trkpt>
      <trkpt lat="47.13808" lon="4.6481">
        <ele>526.4286844719</ele>
        <time>2022-03-23T17:19:40.899Z</time>
      </trkpt>
      <trkpt lat="47.13786" lon="4.64825">
        <ele>527.82741104367</ele>
        <time>2022-03-23T17:19:43.909Z</time>
      </trkpt>
      <trkpt lat="47.13778" lon="4.64831">
        <ele>528.97118176122</ele>
        <time>2022-03-23T17:19:46.931Z</time>
      </trkpt>
      <trkpt lat="47.13776" lon="4.64837">
        <ele>529.96399979279</ele>
        <time>2022-03-23T17:19:49.959Z</time>
      </trkpt>
      <trkpt lat="47.13775" lon="4.6484">
        <ele>531.56926756573</ele>
        <time>2022-03-23T17:19:52.990Z</time>
      </trkpt>
      <trkpt lat="47.13774" lon="4.64844">
        <ele>532.34321561732</ele>
        <time>2022-03-23T17:19:56.025Z</time>
      </trkpt>
      <trkpt lat="47.13777" lon="4.64842">
        <ele>533.12080091802</ele>
        <time>2022-03-23T17:19:59.064Z</time>
      </trkpt>
      <trkpt lat="47.13792" lon="4.64841">
        <ele>534.01163766458</ele>
        <time>2022-03-23T17:20:02.123Z</time>
      </trkpt>
      <trkpt lat="47.13834" lon="4.64846">
        <ele>535.07102172806</ele>
        <time>2022-03-23T17:20:05.238Z</time>
      </trkpt>
      <trkpt lat="47.13846" lon="4.64849">
        <ele>535.98795213243</ele>
        <time>2022-03-23T17:20:08.369Z</time>
      </trkpt>
      <trkpt lat="47.13861" lon="4.64862">
        <ele>536.89314056044</ele>
        <time>2022-03-23T17:20:11.524Z</time>
      </trkpt>
      <trkpt lat="47.13876" lon="4.64876">
        <ele>537.66920982175</ele>
        <time>2022-03-23T17:20:14.702Z</time>
      </trkpt>
      <trkpt lat="47.13935" lon="4.64935">
        <ele>538.29394832219</ele>
        <time>2022-03-23T17:20:17.976Z</time>
      </trkpt>
      <trkpt lat="47.13966" lon="4.64964">
        <ele>538.77036063505</ele>
        <time>2022-03-23T17:20:21.299Z</time>
      </trkpt>
      <trkpt lat="47.13982" lon="4.64976">
        <ele>538.91165597869</ele>
        <time>2022-03-23T17:20:24.646Z</time>
      </trkpt>
      <trkpt lat="47.13998" lon="4.64987">
        <ele>538.68616778356</ele>
        <time>2022-03-23T17:20:28.016Z</time>
      </trkpt>
      <trkpt lat="47.14011" lon="4.64991">
        <ele>538.12106569569</ele>
        <time>2022-03-23T17:20:31.404Z</time>
      </trkpt>
      <trkpt lat="47.14041" lon="4.64995">
        <ele>537.22448100534</ele>
        <time>2022-03-23T17:20:34.832Z</time>
      </trkpt>
      <trkpt lat="47.14058" lon="4.64998">
        <ele>536.06801063419</ele>
        <time>2022-03-23T17:20:38.283Z</time>
      </trkpt>
      <trkpt lat="47.14065" lon="4.65003">
        <ele>534.71217732959</ele>
        <time>2022-03-23T17:20:41.745Z</time>
      </trkpt>
      <trkpt lat="47.14074" lon="4.65011">
        <ele>533.15299958641</ele>
        <time>2022-03-23T17:20:45.221Z</time>
      </trkpt>
      <trkpt lat="47.14109" lon="4.65065">
        <ele>531.07085633614</ele>
        <time>2022-03-23T17:20:48.764Z</time>
      </trkpt>
      <trkpt lat="47.14115" lon="4.65077">
        <ele>529.34588520259</ele>
        <time>2022-03-23T17:20:52.321Z</time>
      </trkpt>
      <trkpt lat="47.14118" lon="4.65087">
        <ele>527.68989686692</ele>
        <time>2022-03-23T17:20:55.888Z</time>
      </trkpt>
      <trkpt lat="47.14121" lon="4.65105">
        <ele>526.15597388484</ele>
        <time>2022-03-23T17:20:59.472Z</time>
      </trkpt>
      <trkpt lat="47.14118" lon="4.6514">
        <ele>524.67989131333</ele>
        <time>2022-03-23T17:21:03.088Z</time>
      </trkpt>
      <trkpt lat="47.14116" lon="4.65157">
        <ele>523.27144263166</ele>
        <time>2022-03-23T17:21:06.720Z</time>
      </trkpt>
      <trkpt lat="47.14118" lon="4.65164">
        <ele>521.9546572861</ele>
        <time>2022-03-23T17:21:10.358Z</time>
      </trkpt>
      <trkpt lat="47.14121" lon="4.65168">
        <ele>520.74019276947</ele>
        <time>2022-03-23T17:21:14.002Z</time>
      </trkpt>
      <trkpt lat="47.1413" lon="4.65174">
        <ele>519.5669092409</ele>
        <time>2022-03-23T17:21:17.659Z</time>
      </trkpt>
      <trkpt lat="47.14137" lon="4.65172">
        <ele>518.53523228162</ele>
        <time>2022-03-23T17:21:21.326Z</time>
      </trkpt>
      <trkpt lat="47.14146" lon="4.65167">
        <ele>517.60590219943</ele>
        <time>2022-03-23T17:21:25.005Z</time>
      </trkpt>
      <trkpt lat="47.14153" lon="4.65164">
        <ele>516.8075382221</ele>
        <time>2022-03-23T17:21:28.694Z</time>
      </trkpt>
      <trkpt lat="47.14153" lon="4.65164">
        <ele>516.20494688419</ele>
        <time>2022-03-23T17:21:32.383Z</time>
      </trkpt>
      <trkpt lat="47.14155" lon="4.65163">
        <ele>515.72985193113</ele>
        <time>2022-03-23T17:21:36.075Z</time>
      </trkpt>
      <trkpt lat="47.1416" lon="4.65161">
        <ele>515.3993159306</ele>
        <time>2022-03-23T17:21:39.774Z</time>
      </trkpt>
      <trkpt lat="47.14159" lon="4.65177">
        <ele>515.27957734906</ele>
        <time>2022-03-23T17:21:43.487Z</time>
      </trkpt>
      <trkpt lat="47.14158" lon="4.65214">
        <ele>515.34716958672</ele>
        <time>2022-03-23T17:21:47.234Z</time>
      </trkpt>
      <trkpt lat="47.14161" lon="4.65254">
        <ele>515.6727727291</ele>
        <time>2022-03-23T17:21:51.018Z</time>
      </trkpt>
      <trkpt lat="47.14161" lon="4.65257">
        <ele>516.99726533527</ele>
        <time>2022-03-23T17:21:54.805Z</time>
      </trkpt>
      <trkpt lat="47.14166" lon="4.65304">
        <ele>518.03280165278</ele>
        <time>2022-03-23T17:21:58.635Z</time>
      </trkpt>
      <trkpt lat="47.14162" lon="4.65329">
        <ele>519.20869680446</ele>
        <time>2022-03-23T17:22:02.488Z</time>
      </trkpt>
      <trkpt lat="47.14155" lon="4.6535">
        <ele>520.43212507746</ele>
        <time>2022-03-23T17:22:06.362Z</time>
      </trkpt>
      <trkpt lat="47.14135" lon="4.65398">
        <ele>521.69642898641</ele>
        <time>2022-03-23T17:22:10.288Z</time>
      </trkpt>
      <trkpt lat="47.14115" lon="4.65442">
        <ele>522.84104931997</ele>
        <time>2022-03-23T17:22:14.262Z</time>
      </trkpt>
      <trkpt lat="47.14084" lon="4.65507">
        <ele>523.6379864096</ele>
        <time>2022-03-23T17:22:18.308Z</time>
      </trkpt>
      <trkpt lat="47.14073" lon="4.6553">
        <ele>524.20549622524</ele>
        <time>2022-03-23T17:22:22.380Z</time>
      </trkpt>
      <trkpt lat="47.14065" lon="4.65555">
        <ele>524.48324303146</ele>
        <time>2022-03-23T17:22:26.477Z</time>
      </trkpt>
      <trkpt lat="47.1405" lon="4.656">
        <ele>524.39892673182</ele>
        <time>2022-03-23T17:22:30.619Z</time>
      </trkpt>
      <trkpt lat="47.1401" lon="4.65683">
        <ele>523.87485559084</ele>
        <time>2022-03-23T17:22:34.854Z</time>
      </trkpt>
      <trkpt lat="47.14009" lon="4.65685">
        <ele>523.30199321373</ele>
        <time>2022-03-23T17:22:39.091Z</time>
      </trkpt>
      <trkpt lat="47.14008" lon="4.65689">
        <ele>521.36210003752</ele>
        <time>2022-03-23T17:22:43.332Z</time>
      </trkpt>
      <trkpt lat="47.14004" lon="4.65706">
        <ele>519.92057492782</ele>
        <time>2022-03-23T17:22:47.589Z</time>
      </trkpt>
      <trkpt lat="47.14002" lon="4.65727">
        <ele>518.09715432885</ele>
        <time>2022-03-23T17:22:51.866Z</time>
      </trkpt>
      <trkpt lat="47.14" lon="4.65768">
        <ele>515.98362446786</ele>
        <time>2022-03-23T17:22:56.180Z</time>
      </trkpt>
      <trkpt lat="47.14004" lon="4.65813">
        <ele>513.56198008266</ele>
        <time>2022-03-23T17:23:00.535Z</time>
      </trkpt>
      <trkpt lat="47.14004" lon="4.65854">
        <ele>510.86288437116</ele>
        <time>2022-03-23T17:23:04.928Z</time>
      </trkpt>
      <trkpt lat="47.13999" lon="4.65905">
        <ele>507.93142188407</ele>
        <time>2022-03-23T17:23:09.367Z</time>
      </trkpt>
      <trkpt lat="47.13989" lon="4.65961">
        <ele>504.78225295875</ele>
        <time>2022-03-23T17:23:13.859Z</time>
      </trkpt>
      <trkpt lat="47.13974" lon="4.66034">
        <ele>501.57121894705</ele>
        <time>2022-03-23T17:23:18.421Z</time>
      </trkpt>
      <trkpt lat="47.13956" lon="4.66093">
        <ele>498.32302074626</ele>
        <time>2022-03-23T17:23:23.041Z</time>
      </trkpt>
      <trkpt lat="47.13926" lon="4.66191">
        <ele>495.16191493216</ele>
        <time>2022-03-23T17:23:27.759Z</time>
      </trkpt>
      <trkpt lat="47.13919" lon="4.66215">
        <ele>492.1687616593</ele>
        <time>2022-03-23T17:23:32.501Z</time>
      </trkpt>
      <trkpt lat="47.13907" lon="4.66253">
        <ele>489.27398274337</ele>
        <time>2022-03-23T17:23:37.281Z</time>
      </trkpt>
      <trkpt lat="47.13899" lon="4.66293">
        <ele>486.67203449055</ele>
        <time>2022-03-23T17:23:42.099Z</time>
      </trkpt>
      <trkpt lat="47.13893" lon="4.6634">
        <ele>484.47258804949</ele>
        <time>2022-03-23T17:23:46.961Z</time>
      </trkpt>
      <trkpt lat="47.13891" lon="4.66379">
        <ele>482.74647042247</ele>
        <time>2022-03-23T17:23:51.858Z</time>
      </trkpt>
      <trkpt lat="47.13889" lon="4.66446">
        <ele>481.22754669072</ele>
        <time>2022-03-23T17:23:56.816Z</time>
      </trkpt>
      <trkpt lat="47.13889" lon="4.66485">
        <ele>480.43074691781</ele>
        <time>2022-03-23T17:24:01.809Z</time>
      </trkpt>
      <trkpt lat="47.13889" lon="4.6649">
        <ele>481.50027310992</ele>
        <time>2022-03-23T17:24:06.807Z</time>
      </trkpt>
      <trkpt lat="47.13935" lon="4.6648">
        <ele>483.76339763731</ele>
        <time>2022-03-23T17:24:11.867Z</time>
      </trkpt>
      <trkpt lat="47.13943" lon="4.66481">
        <ele>486.20802071926</ele>
        <time>2022-03-23T17:24:16.938Z</time>
      </trkpt>
      <trkpt lat="47.13955" lon="4.66488">
        <ele>489.20496508523</ele>
        <time>2022-03-23T17:24:22.026Z</time>
      </trkpt>
      <trkpt lat="47.13965" lon="4.66492">
        <ele>492.59091438063</ele>
        <time>2022-03-23T17:24:27.128Z</time>
      </trkpt>
      <trkpt lat="47.13977" lon="4.66495">
        <ele>496.290402178</ele>
        <time>2022-03-23T17:24:32.246Z</time>
      </trkpt>
      <trkpt lat="47.13995" lon="4.66489">
        <ele>500.28210975503</ele>
        <time>2022-03-23T17:24:37.389Z</time>
      </trkpt>
      <trkpt lat="47.14014" lon="4.66487">
        <ele>504.25628052036</ele>
        <time>2022-03-23T17:24:42.557Z</time>
      </trkpt>
      <trkpt lat="47.14043" lon="4.66491">
        <ele>508.18803555724</ele>
        <time>2022-03-23T17:24:47.764Z</time>
      </trkpt>
      <trkpt lat="47.14061" lon="4.66491">
        <ele>511.82002383043</ele>
        <time>2022-03-23T17:24:52.995Z</time>
      </trkpt>
      <trkpt lat="47.14073" lon="4.66488">
        <ele>515.13977939499</ele>
        <time>2022-03-23T17:24:58.242Z</time>
      </trkpt>
      <trkpt lat="47.14102" lon="4.66481">
        <ele>518.24630189786</ele>
        <time>2022-03-23T17:25:03.529Z</time>
      </trkpt>
      <trkpt lat="47.14155" lon="4.66471">
        <ele>520.86125631637</ele>
        <time>2022-03-23T17:25:08.887Z</time>
      </trkpt>
      <trkpt lat="47.14208" lon="4.66456">
        <ele>523.03301216818</ele>
        <time>2022-03-23T17:25:14.317Z</time>
      </trkpt>
      <trkpt lat="47.14239" lon="4.66448">
        <ele>524.77560175814</ele>
        <time>2022-03-23T17:25:19.789Z</time>
      </trkpt>
      <trkpt lat="47.14275" lon="4.66451">
        <ele>526.26894556587</ele>
        <time>2022-03-23T17:25:25.309Z</time>
      </trkpt>
      <trkpt lat="47.14307" lon="4.66459">
        <ele>527.5189517352</ele>
        <time>2022-03-23T17:25:30.872Z</time>
      </trkpt>
      <trkpt lat="47.14342" lon="4.66466">
        <ele>528.61225232952</ele>
        <time>2022-03-23T17:25:36.482Z</time>
      </trkpt>
      <trkpt lat="47.14384" lon="4.6647">
        <ele>529.42846002472</ele>
        <time>2022-03-23T17:25:42.149Z</time>
      </trkpt>
      <trkpt lat="47.14408" lon="4.66468">
        <ele>530.13752558847</ele>
        <time>2022-03-23T17:25:47.848Z</time>
      </trkpt>
      <trkpt lat="47.14434" lon="4.66461">
        <ele>530.76796317683</ele>
        <time>2022-03-23T17:25:53.582Z</time>
      </trkpt>
      <trkpt lat="47.14445" lon="4.6646">
        <ele>531.41804024156</ele>
        <time>2022-03-23T17:25:59.331Z</time>
      </trkpt>
      <trkpt lat="47.14445" lon="4.6646">
        <ele>532.10713681033</ele>
        <time>2022-03-23T17:26:05.080Z</time>
      </trkpt>
      <trkpt lat="47.14449" lon="4.6646">
        <ele>532.92174290721</ele>
        <time>2022-03-23T17:26:10.834Z</time>
      </trkpt>
      <trkpt lat="47.14479" lon="4.66463">
        <ele>533.94071590374</ele>
        <time>2022-03-23T17:26:16.628Z</time>
      </trkpt>
      <trkpt lat="47.14572" lon="4.66423">
        <ele>535.31235896932</ele>
        <time>2022-03-23T17:26:22.551Z</time>
      </trkpt>
      <trkpt lat="47.14606" lon="4.66407">
        <ele>536.52462439083</ele>
        <time>2022-03-23T17:26:28.522Z</time>
      </trkpt>
      <trkpt lat="47.14626" lon="4.66393">
        <ele>537.76186625868</ele>
        <time>2022-03-23T17:26:34.523Z</time>
      </trkpt>
      <trkpt lat="47.14642" lon="4.66378">
        <ele>538.91865069493</ele>
        <time>2022-03-23T17:26:40.549Z</time>
      </trkpt>
      <trkpt lat="47.1466" lon="4.6636">
        <ele>540.06460532874</ele>
        <time>2022-03-23T17:26:46.604Z</time>
      </trkpt>
      <trkpt lat="47.1468" lon="4.66332">
        <ele>541.22139569433</ele>
        <time>2022-03-23T17:26:52.696Z</time>
      </trkpt>
      <trkpt lat="47.14697" lon="4.66303">
        <ele>542.47512986827</ele>
        <time>2022-03-23T17:26:58.823Z</time>
      </trkpt>
      <trkpt lat="47.14732" lon="4.66234">
        <ele>543.74137413829</ele>
        <time>2022-03-23T17:27:05.028Z</time>
      </trkpt>
      <trkpt lat="47.14748" lon="4.66214">
        <ele>544.62317954584</ele>
        <time>2022-03-23T17:27:11.261Z</time>
      </trkpt>
      <trkpt lat="47.14748" lon="4.66214">
        <ele>545.50930987268</ele>
        <time>2022-03-23T17:27:17.494Z</time>
      </trkpt>
      <trkpt lat="47.14751" lon="4.6621">
        <ele>545.55015592874</ele>
        <time>2022-03-23T17:27:23.732Z</time>
      </trkpt>
      <trkpt lat="47.1476" lon="4.66208">
        <ele>545.34410869956</ele>
        <time>2022-03-23T17:27:29.983Z</time>
      </trkpt>
      <trkpt lat="47.14785" lon="4.66206">
        <ele>544.78086414574</ele>
        <time>2022-03-23T17:27:36.267Z</time>
      </trkpt>
      <trkpt lat="47.14796" lon="4.66205">
        <ele>544.07120665156</ele>
        <time>2022-03-23T17:27:42.566Z</time>
      </trkpt>
      <trkpt lat="47.14816" lon="4.66203">
        <ele>543.15191314598</ele>
        <time>2022-03-23T17:27:48.891Z</time>
      </trkpt>
      <trkpt lat="47.14854" lon="4.66189">
        <ele>542.15472757284</ele>
        <time>2022-03-23T17:27:55.269Z</time>
      </trkpt>
      <trkpt lat="47.14881" lon="4.66172">
        <ele>541.32040983786</ele>
        <time>2022-03-23T17:28:01.686Z</time>
      </trkpt>
      <trkpt lat="47.14892" lon="4.66163">
        <ele>540.66163425975</ele>
        <time>2022-03-23T17:28:08.120Z</time>
      </trkpt>
      <trkpt lat="47.14905" lon="4.66147">
        <ele>540.15672208371</ele>
        <time>2022-03-23T17:28:14.576Z</time>
      </trkpt>
      <trkpt lat="47.14924" lon="4.66119">
        <ele>539.75508135715</ele>
        <time>2022-03-23T17:28:21.068Z</time>
      </trkpt>
      <trkpt lat="47.14937" lon="4.66102">
        <ele>539.40895311094</ele>
        <time>2022-03-23T17:28:27.584Z</time>
      </trkpt>
      <trkpt lat="47.14969" lon="4.66062">
        <ele>539.27093769865</ele>
        <time>2022-03-23T17:28:34.156Z</time>
      </trkpt>
      <trkpt lat="47.15" lon="4.66023">
        <ele>539.11008103657</ele>
        <time>2022-03-23T17:28:40.782Z</time>
      </trkpt>
      <trkpt lat="47.15011" lon="4.66015">
        <ele>539.14319021853</ele>
        <time>2022-03-23T17:28:47.425Z</time>
      </trkpt>
      <trkpt lat="47.15043" lon="4.66003">
        <ele>539.30031059152</ele>
        <time>2022-03-23T17:28:54.112Z</time>
      </trkpt>
      <trkpt lat="47.1507" lon="4.65993">
        <ele>539.39805118898</ele>
        <time>2022-03-23T17:29:00.836Z</time>
      </trkpt>
      <trkpt lat="47.15084" lon="4.65982">
        <ele>539.34185530717</ele>
        <time>2022-03-23T17:29:07.581Z</time>
      </trkpt>
      <trkpt lat="47.15112" lon="4.65948">
        <ele>539.15701068359</ele>
        <time>2022-03-23T17:29:14.375Z</time>
      </trkpt>
      <trkpt lat="47.15142" lon="4.65903">
        <ele>538.64194781402</ele>
        <time>2022-03-23T17:29:21.226Z</time>
      </trkpt>
      <trkpt lat="47.15177" lon="4.65865">
        <ele>538.11546900886</ele>
        <time>2022-03-23T17:29:28.135Z</time>
      </trkpt>
      <trkpt lat="47.15209" lon="4.65838">
        <ele>537.50940950988</ele>
        <time>2022-03-23T17:29:35.093Z</time>
      </trkpt>
      <trkpt lat="47.15253" lon="4.658">
        <ele>536.7714307654</ele>
        <time>2022-03-23T17:29:42.119Z</time>
      </trkpt>
      <trkpt lat="47.15271" lon="4.65788">
        <ele>536.05934937467</ele>
        <time>2022-03-23T17:29:49.172Z</time>
      </trkpt>
      <trkpt lat="47.15287" lon="4.65781">
        <ele>535.34250349781</ele>
        <time>2022-03-23T17:29:56.247Z</time>
      </trkpt>
      <trkpt lat="47.15294" lon="4.65779">
        <ele>534.67212202403</ele>
        <time>2022-03-23T17:30:03.331Z</time>
      </trkpt>
      <trkpt lat="47.15321" lon="4.65773">
        <ele>533.94857511947</ele>
        <time>2022-03-23T17:30:10.452Z</time>
      </trkpt>
      <trkpt lat="47.1535" lon="4.65765">
        <ele>533.33006665719</ele>
        <time>2022-03-23T17:30:17.612Z</time>
      </trkpt>
      <trkpt lat="47.15362" lon="4.6576">
        <ele>532.7013444942</ele>
        <time>2022-03-23T17:30:24.789Z</time>
      </trkpt>
      <trkpt lat="47.15395" lon="4.65734">
        <ele>531.98747492398</ele>
        <time>2022-03-23T17:30:32.016Z</time>
      </trkpt>
      <trkpt lat="47.15443" lon="4.65693">
        <ele>531.30050806981</ele>
        <time>2022-03-23T17:30:39.317Z</time>
      </trkpt>
      <trkpt lat="47.15482" lon="4.65662">
        <ele>530.64393725643</ele>
        <time>2022-03-23T17:30:46.677Z</time>
      </trkpt>
      <trkpt lat="47.15507" lon="4.65644">
        <ele>529.80506611382</ele>
        <time>2022-03-23T17:30:54.074Z</time>
      </trkpt>
      <trkpt lat="47.15538" lon="4.65622">
        <ele>528.65233375309</ele>
        <time>2022-03-23T17:31:01.517Z</time>
      </trkpt>
      <trkpt lat="47.15558" lon="4.65599">
        <ele>527.37905181198</ele>
        <time>2022-03-23T17:31:08.994Z</time>
      </trkpt>
      <trkpt lat="47.15568" lon="4.65582">
        <ele>526.01757253119</ele>
        <time>2022-03-23T17:31:16.492Z</time>
      </trkpt>
      <trkpt lat="47.1557" lon="4.65568">
        <ele>524.52480450007</ele>
        <time>2022-03-23T17:31:24.003Z</time>
      </trkpt>
      <trkpt lat="47.1557" lon="4.65542">
        <ele>522.89631880666</ele>
        <time>2022-03-23T17:31:31.537Z</time>
      </trkpt>
      <trkpt lat="47.15567" lon="4.65511">
        <ele>521.20896689267</ele>
        <time>2022-03-23T17:31:39.100Z</time>
      </trkpt>
      <trkpt lat="47.15569" lon="4.65478">
        <ele>519.61759895913</ele>
        <time>2022-03-23T17:31:46.693Z</time>
      </trkpt>
      <trkpt lat="47.15573" lon="4.65463">
        <ele>518.08990388867</ele>
        <time>2022-03-23T17:31:54.301Z</time>
      </trkpt>
      <trkpt lat="47.15582" lon="4.65446">
        <ele>516.61397814086</ele>
        <time>2022-03-23T17:32:01.928Z</time>
      </trkpt>
      <trkpt lat="47.15605" lon="4.65412">
        <ele>515.13847906369</ele>
        <time>2022-03-23T17:32:09.599Z</time>
      </trkpt>
      <trkpt lat="47.15642" lon="4.65374">
        <ele>513.82708743563</ele>
        <time>2022-03-23T17:32:17.330Z</time>
      </trkpt>
      <trkpt lat="47.15666" lon="4.6535">
        <ele>512.7766010111</ele>
        <time>2022-03-23T17:32:25.100Z</time>
      </trkpt>
      <trkpt lat="47.15688" lon="4.65334">
        <ele>511.89170484886</ele>
        <time>2022-03-23T17:32:32.903Z</time>
      </trkpt>
      <trkpt lat="47.1572" lon="4.65316">
        <ele>511.17284194405</ele>
        <time>2022-03-23T17:32:40.751Z</time>
      </trkpt>
      <trkpt lat="47.15757" lon="4.65297">
        <ele>510.36425987416</ele>
        <time>2022-03-23T17:32:48.652Z</time>
      </trkpt>
      <trkpt lat="47.1579" lon="4.65283">
        <ele>509.54884087712</ele>
        <time>2022-03-23T17:32:56.598Z</time>
      </trkpt>
      <trkpt lat="47.15823" lon="4.65267">
        <ele>508.82891234614</ele>
        <time>2022-03-23T17:33:04.591Z</time>
      </trkpt>
      <trkpt lat="47.15842" lon="4.6525">
        <ele>507.97087163322</ele>
        <time>2022-03-23T17:33:12.613Z</time>
      </trkpt>
      <trkpt lat="47.1586" lon="4.65231">
        <ele>507.0126598607</ele>
        <time>2022-03-23T17:33:20.665Z</time>
      </trkpt>
      <trkpt lat="47.15884" lon="4.65217">
        <ele>505.85478446116</ele>
        <time>2022-03-23T17:33:28.751Z</time>
      </trkpt>
      <trkpt lat="47.15903" lon="4.65194">
        <ele>504.60449965397</ele>
        <time>2022-03-23T17:33:36.870Z</time>
      </trkpt>
      <trkpt lat="47.15927" lon="4.6516">
        <ele>503.19670226461</ele>
        <time>2022-03-23T17:33:45.034Z</time>
      </trkpt>
      <trkpt lat="47.1594" lon="4.65141">
        <ele>501.8564684867</ele>
        <time>2022-03-23T17:33:53.222Z</time>
      </trkpt>
      <trkpt lat="47.1595" lon="4.65122">
        <ele>500.44136876792</ele>
        <time>2022-03-23T17:34:01.432Z</time>
      </trkpt>
      <trkpt lat="47.15956" lon="4.65104">
        <ele>498.96277260136</ele>
        <time>2022-03-23T17:34:09.660Z</time>
      </trkpt>
      <trkpt lat="47.15962" lon="4.65088">
        <ele>497.51606756669</ele>
        <time>2022-03-23T17:34:17.905Z</time>
      </trkpt>
      <trkpt lat="47.15974" lon="4.65065">
        <ele>496.00483927443</ele>
        <time>2022-03-23T17:34:26.176Z</time>
      </trkpt>
      <trkpt lat="47.15982" lon="4.65054">
        <ele>494.77590501464</ele>
        <time>2022-03-23T17:34:34.462Z</time>
      </trkpt>
      <trkpt lat="47.16006" lon="4.65031">
        <ele>493.73208738007</ele>
        <time>2022-03-23T17:34:42.786Z</time>
      </trkpt>
      <trkpt lat="47.16001" lon="4.65026">
        <ele>492.95120264278</ele>
        <time>2022-03-23T17:34:51.118Z</time>
      </trkpt>
      <trkpt lat="47.15982" lon="4.65032">
        <ele>492.52494360662</ele>
        <time>2022-03-23T17:34:59.476Z</time>
      </trkpt>
      <trkpt lat="47.1593" lon="4.6504">
        <ele>492.42235817089</ele>
        <time>2022-03-23T17:35:07.904Z</time>
      </trkpt>
      <trkpt lat="47.1591" lon="4.65043">
        <ele>492.45765963595</ele>
        <time>2022-03-23T17:35:16.359Z</time>
      </trkpt>
      <trkpt lat="47.15909" lon="4.65043">
        <ele>492.7298951417</ele>
        <time>2022-03-23T17:35:24.816Z</time>
      </trkpt>
      <trkpt lat="47.15889" lon="4.65042">
        <ele>493.24105375855</ele>
        <time>2022-03-23T17:35:33.299Z</time>
      </trkpt>
      <trkpt lat="47.15877" lon="4.65036">
        <ele>493.87680002217</ele>
        <time>2022-03-23T17:35:41.799Z</time>
      </trkpt>
      <trkpt lat="47.1587" lon="4.65032">
        <ele>494.69486183357</ele>
        <time>2022-03-23T17:35:50.309Z</time>
      </trkpt>
      <trkpt lat="47.1586" lon="4.65032">
        <ele>495.6651020546</ele>
        <time>2022-03-23T17:35:58.832Z</time>
      </trkpt>
      <trkpt lat="47.1583" lon="4.6504">
        <ele>496.84432165408</ele>
        <time>2022-03-23T17:36:07.396Z</time>
      </trkpt>
      <trkpt lat="47.15811" lon="4.65048">
        <ele>497.89708029539</ele>
        <time>2022-03-23T17:36:15.986Z</time>
      </trkpt>
      <trkpt lat="47.15792" lon="4.65063">
        <ele>498.88103785112</ele>
        <time>2022-03-23T17:36:24.605Z</time>
      </trkpt>
      <trkpt lat="47.15784" lon="4.65072">
        <ele>499.75438550095</ele>
        <time>2022-03-23T17:36:33.237Z</time>
      </trkpt>
      <trkpt lat="47.15757" lon="4.65085">
        <ele>500.56786781072</ele>
        <time>2022-03-23T17:36:41.907Z</time>
      </trkpt>
      <trkpt lat="47.15738" lon="4.65094">
        <ele>501.30624265057</ele>
        <time>2022-03-23T17:36:50.604Z</time>
      </trkpt>
      <trkpt lat="47.15711" lon="4.65102">
        <ele>501.89858556402</ele>
        <time>2022-03-23T17:36:59.338Z</time>
      </trkpt>
      <trkpt lat="47.15693" lon="4.65106">
        <ele>502.16295038452</ele>
        <time>2022-03-23T17:37:08.096Z</time>
      </trkpt>
      <trkpt lat="47.15675" lon="4.65101">
        <ele>502.08550970657</ele>
        <time>2022-03-23T17:37:16.879Z</time>
      </trkpt>
      <trkpt lat="47.15654" lon="4.65104">
        <ele>501.74729173436</ele>
        <time>2022-03-23T17:37:25.690Z</time>
      </trkpt>
      <trkpt lat="47.15654" lon="4.65069">
        <ele>500.82309939733</ele>
        <time>2022-03-23T17:37:34.533Z</time>
      </trkpt>
      <trkpt lat="47.15654" lon="4.65067">
        <ele>499.7915125086</ele>
        <time>2022-03-23T17:37:43.377Z</time>
      </trkpt>
      <trkpt lat="47.15654" lon="4.65022">
        <ele>498.19698393237</ele>
        <time>2022-03-23T17:37:52.262Z</time>
      </trkpt>
      <trkpt lat="47.15659" lon="4.65021">
        <ele>496.67192385271</ele>
        <time>2022-03-23T17:38:01.154Z</time>
      </trkpt>
      <trkpt lat="47.15669" lon="4.65012">
        <ele>494.91073012238</ele>
        <time>2022-03-23T17:38:10.062Z</time>
      </trkpt>
      <trkpt lat="47.15674" lon="4.65006">
        <ele>492.99212870976</ele>
        <time>2022-03-23T17:38:18.978Z</time>
      </trkpt>
      <trkpt lat="47.15692" lon="4.65001">
        <ele>490.92061326786</ele>
        <time>2022-03-23T17:38:27.919Z</time>
      </trkpt>
      <trkpt lat="47.15709" lon="4.64998">
        <ele>488.80011240359</ele>
        <time>2022-03-23T17:38:36.883Z</time>
      </trkpt>
      <trkpt lat="47.15732" lon="4.64997">
        <ele>486.65446144229</ele>
        <time>2022-03-23T17:38:45.877Z</time>
      </trkpt>
      <trkpt lat="47.1577" lon="4.64982">
        <ele>484.28557236789</ele>
        <time>2022-03-23T17:38:54.924Z</time>
      </trkpt>
      <trkpt lat="47.1577" lon="4.64982">
        <ele>482.09239601683</ele>
        <time>2022-03-23T17:39:03.971Z</time>
      </trkpt>
      <trkpt lat="47.15814" lon="4.64963">
        <ele>479.88442746362</ele>
        <time>2022-03-23T17:39:13.079Z</time>
      </trkpt>
      <trkpt lat="47.15882" lon="4.64927">
        <ele>477.37102231289</ele>
        <time>2022-03-23T17:39:22.283Z</time>
      </trkpt>
      <trkpt lat="47.15923" lon="4.64907">
        <ele>474.84133068841</ele>
        <time>2022-03-23T17:39:31.545Z</time>
      </trkpt>
      <trkpt lat="47.15906" lon="4.64904">
        <ele>473.26550058312</ele>
        <time>2022-03-23T17:39:40.830Z</time>
      </trkpt>
      <trkpt lat="47.15887" lon="4.64905">
        <ele>472.01397912838</ele>
        <time>2022-03-23T17:39:50.140Z</time>
      </trkpt>
      <trkpt lat="47.15873" lon="4.64911">
        <ele>471.09654762024</ele>
        <time>2022-03-23T17:39:59.470Z</time>
      </trkpt>
      <trkpt lat="47.15858" lon="4.64912">
        <ele>470.32974195671</ele>
        <time>2022-03-23T17:40:08.820Z</time>
      </trkpt>
      <trkpt lat="47.15819" lon="4.64911">
        <ele>469.6606145054</ele>
        <time>2022-03-23T17:40:18.222Z</time>
      </trkpt>
      <trkpt lat="47.15788" lon="4.6491">
        <ele>469.15581927445</ele>
        <time>2022-03-23T17:40:27.665Z</time>
      </trkpt>
      <trkpt lat="47.15755" lon="4.64915">
        <ele>469.08681342035</ele>
        <time>2022-03-23T17:40:37.152Z</time>
      </trkpt>
      <trkpt lat="47.1573" lon="4.64919">
        <ele>469.37570427141</ele>
        <time>2022-03-23T17:40:46.673Z</time>
      </trkpt>
      <trkpt lat="47.15705" lon="4.64915">
        <ele>469.8548738093</ele>
        <time>2022-03-23T17:40:56.228Z</time>
      </trkpt>
      <trkpt lat="47.15675" lon="4.64907">
        <ele>470.46905660286</ele>
        <time>2022-03-23T17:41:05.823Z</time>
      </trkpt>
      <trkpt lat="47.15674" lon="4.64907">
        <ele>471.27836977927</ele>
        <time>2022-03-23T17:41:15.420Z</time>
      </trkpt>
      <trkpt lat="47.15633" lon="4.64919">
        <ele>472.45695786933</ele>
        <time>2022-03-23T17:41:25.072Z</time>
      </trkpt>
      <trkpt lat="47.15604" lon="4.64923">
        <ele>473.44464071722</ele>
        <time>2022-03-23T17:41:34.763Z</time>
      </trkpt>
      <trkpt lat="47.15588" lon="4.64928">
        <ele>474.50403463521</ele>
        <time>2022-03-23T17:41:44.476Z</time>
      </trkpt>
      <trkpt lat="47.15567" lon="4.64931">
        <ele>475.43146593691</ele>
        <time>2022-03-23T17:41:54.217Z</time>
      </trkpt>
      <trkpt lat="47.15547" lon="4.64927">
        <ele>476.04567876402</ele>
        <time>2022-03-23T17:42:03.985Z</time>
      </trkpt>
      <trkpt lat="47.15521" lon="4.64924">
        <ele>476.4900719238</ele>
        <time>2022-03-23T17:42:13.788Z</time>
      </trkpt>
      <trkpt lat="47.15513" lon="4.64925">
        <ele>476.93140954031</ele>
        <time>2022-03-23T17:42:23.602Z</time>
      </trkpt>
      <trkpt lat="47.15498" lon="4.64932">
        <ele>477.37194785669</ele>
        <time>2022-03-23T17:42:33.437Z</time>
      </trkpt>
      <trkpt lat="47.15486" lon="4.64939">
        <ele>477.75517224173</ele>
        <time>2022-03-23T17:42:43.289Z</time>
      </trkpt>
      <trkpt lat="47.15469" lon="4.64956">
        <ele>478.10035069873</ele>
        <time>2022-03-23T17:42:53.168Z</time>
      </trkpt>
      <trkpt lat="47.1545" lon="4.64967">
        <ele>478.23389322144</ele>
        <time>2022-03-23T17:43:03.074Z</time>
      </trkpt>
      <trkpt lat="47.15411" lon="4.6498">
        <ele>478.27307419727</ele>
        <time>2022-03-23T17:43:13.034Z</time>
      </trkpt>
      <trkpt lat="47.15389" lon="4.64985">
        <ele>478.07916729454</ele>
        <time>2022-03-23T17:43:23.024Z</time>
      </trkpt>
      <trkpt lat="47.15365" lon="4.64986">
        <ele>477.98996438367</ele>
        <time>2022-03-23T17:43:33.046Z</time>
      </trkpt>
      <trkpt lat="47.15353" lon="4.64986">
        <ele>478.01900528084</ele>
        <time>2022-03-23T17:43:43.084Z</time>
      </trkpt>
      <trkpt lat="47.15343" lon="4.64989">
        <ele>478.20449237341</ele>
        <time>2022-03-23T17:43:53.135Z</time>
      </trkpt>
      <trkpt lat="47.15325" lon="4.64993">
        <ele>478.56949411569</ele>
        <time>2022-03-23T17:44:03.210Z</time>
      </trkpt>
      <trkpt lat="47.15308" lon="4.64997">
        <ele>479.35813627574</ele>
        <time>2022-03-23T17:44:13.308Z</time>
      </trkpt>
      <trkpt lat="47.15292" lon="4.65005">
        <ele>480.50289119337</ele>
        <time>2022-03-23T17:44:23.429Z</time>
      </trkpt>
      <trkpt lat="47.1525" lon="4.65032">
        <ele>482.02107616501</ele>
        <time>2022-03-23T17:44:33.611Z</time>
      </trkpt>
      <trkpt lat="47.15241" lon="4.65038">
        <ele>483.71375805746</ele>
        <time>2022-03-23T17:44:43.806Z</time>
      </trkpt>
      <trkpt lat="47.15225" lon="4.65051">
        <ele>485.78229423386</ele>
        <time>2022-03-23T17:44:54.026Z</time>
      </trkpt>
      <trkpt lat="47.15199" lon="4.65086">
        <ele>488.22603909514</ele>
        <time>2022-03-23T17:45:04.293Z</time>
      </trkpt>
      <trkpt lat="47.15193" lon="4.65093">
        <ele>490.52295230072</ele>
        <time>2022-03-23T17:45:14.570Z</time>
      </trkpt>
      <trkpt lat="47.15183" lon="4.65098">
        <ele>492.92908819922</ele>
        <time>2022-03-23T17:45:24.861Z</time>
      </trkpt>
      <trkpt lat="47.15183" lon="4.65112">
        <ele>495.51063049253</ele>
        <time>2022-03-23T17:45:35.165Z</time>
      </trkpt>
      <trkpt lat="47.15183" lon="4.65128">
        <ele>498.09878157081</ele>
        <time>2022-03-23T17:45:45.484Z</time>
      </trkpt>
      <trkpt lat="47.15179" lon="4.65157">
        <ele>500.79620889982</ele>
        <time>2022-03-23T17:45:55.829Z</time>
      </trkpt>
      <trkpt lat="47.15173" lon="4.65182">
        <ele>503.28798539401</ele>
        <time>2022-03-23T17:46:06.199Z</time>
      </trkpt>
      <trkpt lat="47.15154" lon="4.65228">
        <ele>505.74096266056</ele>
        <time>2022-03-23T17:46:16.618Z</time>
      </trkpt>
      <trkpt lat="47.15149" lon="4.65247">
        <ele>507.60210823862</ele>
        <time>2022-03-23T17:46:27.055Z</time>
      </trkpt>
      <trkpt lat="47.15147" lon="4.65274">
        <ele>509.12559735123</ele>
        <time>2022-03-23T17:46:37.517Z</time>
      </trkpt>
      <trkpt lat="47.15141" lon="4.65297">
        <ele>510.30096489071</ele>
        <time>2022-03-23T17:46:48.001Z</time>
      </trkpt>
      <trkpt lat="47.15134" lon="4.65309">
        <ele>511.22716067981</ele>
        <time>2022-03-23T17:46:58.500Z</time>
      </trkpt>
      <trkpt lat="47.15126" lon="4.65322">
        <ele>511.97889262723</ele>
        <time>2022-03-23T17:47:09.014Z</time>
      </trkpt>
      <trkpt lat="47.15132" lon="4.65322">
        <ele>512.64652085714</ele>
        <time>2022-03-23T17:47:19.536Z</time>
      </trkpt>
      <trkpt lat="47.15132" lon="4.65322">
        <ele>513.30350010336</ele>
        <time>2022-03-23T17:47:30.058Z</time>
      </trkpt>
      <trkpt lat="47.15132" lon="4.65322">
        <ele>514.02646565618</ele>
        <time>2022-03-23T17:47:40.581Z</time>
      </trkpt>
      <trkpt lat="47.15126" lon="4.65322">
        <ele>511.97889262723</ele>
        <time>2022-03-23T17:47:51.112Z</time>
      </trkpt>
      <trkpt lat="47.15027" lon="4.65324">
        <ele>516.13048447116</ele>
        <time>2022-03-23T17:48:01.775Z</time>
      </trkpt>
      <trkpt lat="47.15003" lon="4.65322">
        <ele>517.30485941319</ele>
        <time>2022-03-23T17:48:12.470Z</time>
      </trkpt>
      <trkpt lat="47.14985" lon="4.65325">
        <ele>518.52500077458</ele>
        <time>2022-03-23T17:48:23.190Z</time>
      </trkpt>
      <trkpt lat="47.14911" lon="4.65332">
        <ele>519.94970360952</ele>
        <time>2022-03-23T17:48:34.009Z</time>
      </trkpt>
      <trkpt lat="47.14875" lon="4.65337">
        <ele>521.21464367518</ele>
        <time>2022-03-23T17:48:44.876Z</time>
      </trkpt>
      <trkpt lat="47.14863" lon="4.65338">
        <ele>522.25538036743</ele>
        <time>2022-03-23T17:48:55.759Z</time>
      </trkpt>
      <trkpt lat="47.14853" lon="4.65335">
        <ele>523.12526175663</ele>
        <time>2022-03-23T17:49:06.655Z</time>
      </trkpt>
      <trkpt lat="47.14845" lon="4.65329">
        <ele>523.81064541481</ele>
        <time>2022-03-23T17:49:17.563Z</time>
      </trkpt>
      <trkpt lat="47.14832" lon="4.65317">
        <ele>524.32231344455</ele>
        <time>2022-03-23T17:49:28.492Z</time>
      </trkpt>
      <trkpt lat="47.14815" lon="4.65297">
        <ele>524.67726556196</ele>
        <time>2022-03-23T17:49:39.450Z</time>
      </trkpt>
      <trkpt lat="47.14797" lon="4.65285">
        <ele>524.96039180121</ele>
        <time>2022-03-23T17:49:50.434Z</time>
      </trkpt>
      <trkpt lat="47.1477" lon="4.65276">
        <ele>525.09460637027</ele>
        <time>2022-03-23T17:50:01.455Z</time>
      </trkpt>
      <trkpt lat="47.1475" lon="4.65264">
        <ele>525.0615817168</ele>
        <time>2022-03-23T17:50:12.505Z</time>
      </trkpt>
      <trkpt lat="47.14736" lon="4.6526">
        <ele>525.02042039008</ele>
        <time>2022-03-23T17:50:23.574Z</time>
      </trkpt>
      <trkpt lat="47.1473" lon="4.65259">
        <ele>524.99587720431</ele>
        <time>2022-03-23T17:50:34.651Z</time>
      </trkpt>
      <trkpt lat="47.14722" lon="4.65264">
        <ele>525.0404734737</ele>
        <time>2022-03-23T17:50:45.740Z</time>
      </trkpt>
      <trkpt lat="47.14715" lon="4.65274">
        <ele>525.17862351114</ele>
        <time>2022-03-23T17:50:56.842Z</time>
      </trkpt>
      <trkpt lat="47.14712" lon="4.65276">
        <ele>525.36921752118</ele>
        <time>2022-03-23T17:51:07.948Z</time>
      </trkpt>
      <trkpt lat="47.14705" lon="4.65278">
        <ele>525.67241408382</ele>
        <time>2022-03-23T17:51:19.064Z</time>
      </trkpt>
      <trkpt lat="47.14646" lon="4.65263">
        <ele>526.0787779865</ele>
        <time>2022-03-23T17:51:30.260Z</time>
      </trkpt>
      <trkpt lat="47.14631" lon="4.65265">
        <ele>526.63331010104</ele>
        <time>2022-03-23T17:51:41.476Z</time>
      </trkpt>
      <trkpt lat="47.14611" lon="4.65256">
        <ele>527.26980415928</ele>
        <time>2022-03-23T17:51:52.720Z</time>
      </trkpt>
      <trkpt lat="47.14601" lon="4.6525">
        <ele>527.98894710724</ele>
        <time>2022-03-23T17:52:03.978Z</time>
      </trkpt>
      <trkpt lat="47.1459" lon="4.65246">
        <ele>528.80315467111</ele>
        <time>2022-03-23T17:52:15.251Z</time>
      </trkpt>
      <trkpt lat="47.14579" lon="4.65249">
        <ele>529.71246447837</ele>
        <time>2022-03-23T17:52:26.539Z</time>
      </trkpt>
      <trkpt lat="47.14564" lon="4.65265">
        <ele>530.65747202697</ele>
        <time>2022-03-23T17:52:37.852Z</time>
      </trkpt>
      <trkpt lat="47.14544" lon="4.65291">
        <ele>531.42878012025</ele>
        <time>2022-03-23T17:52:49.201Z</time>
      </trkpt>
      <trkpt lat="47.14484" lon="4.65326">
        <ele>531.8927350691</ele>
        <time>2022-03-23T17:53:00.636Z</time>
      </trkpt>
      <trkpt lat="47.14458" lon="4.65347">
        <ele>532.09535148447</ele>
        <time>2022-03-23T17:53:12.110Z</time>
      </trkpt>
      <trkpt lat="47.14448" lon="4.65361">
        <ele>532.04356547593</ele>
        <time>2022-03-23T17:53:23.603Z</time>
      </trkpt>
      <trkpt lat="47.14436" lon="4.65374">
        <ele>531.63757060019</ele>
        <time>2022-03-23T17:53:35.116Z</time>
      </trkpt>
      <trkpt lat="47.14413" lon="4.65381">
        <ele>530.73491852709</ele>
        <time>2022-03-23T17:53:46.660Z</time>
      </trkpt>
      <trkpt lat="47.14405" lon="4.65383">
        <ele>529.59850568272</ele>
        <time>2022-03-23T17:53:58.215Z</time>
      </trkpt>
      <trkpt lat="47.14399" lon="4.65374">
        <ele>528.13460577809</ele>
        <time>2022-03-23T17:54:09.781Z</time>
      </trkpt>
      <trkpt lat="47.14389" lon="4.65363">
        <ele>526.43183639225</ele>
        <time>2022-03-23T17:54:21.364Z</time>
      </trkpt>
      <trkpt lat="47.14389" lon="4.65364">
        <ele>524.74541184931</ele>
        <time>2022-03-23T17:54:32.947Z</time>
      </trkpt>
      <trkpt lat="47.14341" lon="4.65316">
        <ele>523.48821046219</ele>
        <time>2022-03-23T17:54:44.608Z</time>
      </trkpt>
      <trkpt lat="47.14327" lon="4.65304">
        <ele>522.56680669144</ele>
        <time>2022-03-23T17:54:56.290Z</time>
      </trkpt>
      <trkpt lat="47.14315" lon="4.65298">
        <ele>521.7185306652</ele>
        <time>2022-03-23T17:55:07.989Z</time>
      </trkpt>
      <trkpt lat="47.14297" lon="4.65295">
        <ele>520.89152365998</ele>
        <time>2022-03-23T17:55:19.713Z</time>
      </trkpt>
      <trkpt lat="47.14286" lon="4.65294">
        <ele>520.16587552562</ele>
        <time>2022-03-23T17:55:31.451Z</time>
      </trkpt>
      <trkpt lat="47.14273" lon="4.65289">
        <ele>519.49664421189</ele>
        <time>2022-03-23T17:55:43.207Z</time>
      </trkpt>
      <trkpt lat="47.14263" lon="4.65281">
        <ele>518.89274212619</ele>
        <time>2022-03-23T17:55:54.978Z</time>
      </trkpt>
      <trkpt lat="47.14286" lon="4.65275">
        <ele>518.39877994232</ele>
        <time>2022-03-23T17:56:06.781Z</time>
      </trkpt>
      <trkpt lat="47.14345" lon="4.65256">
        <ele>517.97267780123</ele>
        <time>2022-03-23T17:56:18.664Z</time>
      </trkpt>
      <trkpt lat="47.14363" lon="4.65251">
        <ele>517.61349771717</ele>
        <time>2022-03-23T17:56:30.572Z</time>
      </trkpt>
      <trkpt lat="47.14379" lon="4.65246">
        <ele>517.31876589904</ele>
        <time>2022-03-23T17:56:42.501Z</time>
      </trkpt>
      <trkpt lat="47.14398" lon="4.6523">
        <ele>516.99543383249</ele>
        <time>2022-03-23T17:56:54.460Z</time>
      </trkpt>
      <trkpt lat="47.14439" lon="4.65193">
        <ele>516.85297253009</ele>
        <time>2022-03-23T17:57:06.483Z</time>
      </trkpt>
      <trkpt lat="47.14461" lon="4.65175">
        <ele>516.78694447396</ele>
        <time>2022-03-23T17:57:18.539Z</time>
      </trkpt>
      <trkpt lat="47.14466" lon="4.65164">
        <ele>516.61768828306</ele>
        <time>2022-03-23T17:57:30.608Z</time>
      </trkpt>
      <trkpt lat="47.14479" lon="4.65147">
        <ele>516.47173093813</ele>
        <time>2022-03-23T17:57:42.700Z</time>
      </trkpt>
      <trkpt lat="47.14487" lon="4.65135">
        <ele>516.31914631409</ele>
        <time>2022-03-23T17:57:54.807Z</time>
      </trkpt>
      <trkpt lat="47.14494" lon="4.65118">
        <ele>516.08966822708</ele>
        <time>2022-03-23T17:58:06.932Z</time>
      </trkpt>
      <trkpt lat="47.14508" lon="4.6509">
        <ele>515.8367084061</ele>
        <time>2022-03-23T17:58:19.089Z</time>
      </trkpt>
      <trkpt lat="47.14537" lon="4.65028">
        <ele>515.63780562668</ele>
        <time>2022-03-23T17:58:31.314Z</time>
      </trkpt>
      <trkpt lat="47.14554" lon="4.64982">
        <ele>515.35030891271</ele>
        <time>2022-03-23T17:58:43.587Z</time>
      </trkpt>
      <trkpt lat="47.14575" lon="4.64936">
        <ele>515.03759745478</ele>
        <time>2022-03-23T17:58:55.910Z</time>
      </trkpt>
      <trkpt lat="47.14594" lon="4.64913">
        <ele>514.6744751247</ele>
        <time>2022-03-23T17:59:08.266Z</time>
      </trkpt>
      <trkpt lat="47.14608" lon="4.64902">
        <ele>514.25751460901</ele>
        <time>2022-03-23T17:59:20.643Z</time>
      </trkpt>
      <trkpt lat="47.14633" lon="4.64879">
        <ele>513.80838335021</ele>
        <time>2022-03-23T17:59:33.060Z</time>
      </trkpt>
      <trkpt lat="47.14648" lon="4.64857">
        <ele>513.2041077607</ele>
        <time>2022-03-23T17:59:45.505Z</time>
      </trkpt>
      <trkpt lat="47.14659" lon="4.64836">
        <ele>512.56969556645</ele>
        <time>2022-03-23T17:59:57.974Z</time>
      </trkpt>
      <trkpt lat="47.14685" lon="4.64784">
        <ele>511.84685629929</ele>
        <time>2022-03-23T18:00:10.502Z</time>
      </trkpt>
      <trkpt lat="47.14693" lon="4.64768">
        <ele>511.16310590567</ele>
        <time>2022-03-23T18:00:23.048Z</time>
      </trkpt>
      <trkpt lat="47.14714" lon="4.64743">
        <ele>510.63658572113</ele>
        <time>2022-03-23T18:00:35.630Z</time>
      </trkpt>
      <trkpt lat="47.14733" lon="4.64717">
        <ele>509.92280978074</ele>
        <time>2022-03-23T18:00:48.246Z</time>
      </trkpt>
      <trkpt lat="47.14743" lon="4.64697">
        <ele>509.06798235633</ele>
        <time>2022-03-23T18:01:00.885Z</time>
      </trkpt>
      <trkpt lat="47.14755" lon="4.64654">
        <ele>508.11070351884</ele>
        <time>2022-03-23T18:01:13.566Z</time>
      </trkpt>
      <trkpt lat="47.1476" lon="4.64618">
        <ele>507.08770676736</ele>
        <time>2022-03-23T18:01:26.281Z</time>
      </trkpt>
      <trkpt lat="47.14766" lon="4.64608">
        <ele>506.36714061608</ele>
        <time>2022-03-23T18:01:39.008Z</time>
      </trkpt>
      <trkpt lat="47.14774" lon="4.64601">
        <ele>505.73020284558</ele>
        <time>2022-03-23T18:01:51.747Z</time>
      </trkpt>
      <trkpt lat="47.14784" lon="4.64592">
        <ele>505.17398910483</ele>
        <time>2022-03-23T18:02:04.502Z</time>
      </trkpt>
      <trkpt lat="47.14795" lon="4.64575">
        <ele>504.65405992495</ele>
        <time>2022-03-23T18:02:17.278Z</time>
      </trkpt>
      <trkpt lat="47.14824" lon="4.64539">
        <ele>504.26057835192</ele>
        <time>2022-03-23T18:02:30.105Z</time>
      </trkpt>
      <trkpt lat="47.14852" lon="4.64511">
        <ele>503.83616291155</ele>
        <time>2022-03-23T18:02:42.977Z</time>
      </trkpt>
      <trkpt lat="47.14884" lon="4.64482">
        <ele>503.44276396361</ele>
        <time>2022-03-23T18:02:55.899Z</time>
      </trkpt>
      <trkpt lat="47.14936" lon="4.64436">
        <ele>502.50392025229</ele>
        <time>2022-03-23T18:03:08.902Z</time>
      </trkpt>
      <trkpt lat="47.14969" lon="4.64405">
        <ele>502.24142576232</ele>
        <time>2022-03-23T18:03:21.958Z</time>
      </trkpt>
      <trkpt lat="47.14988" lon="4.64381">
        <ele>502.01673652704</ele>
        <time>2022-03-23T18:03:35.047Z</time>
      </trkpt>
      <trkpt lat="47.15008" lon="4.6435">
        <ele>501.66710976106</ele>
        <time>2022-03-23T18:03:48.175Z</time>
      </trkpt>
      <trkpt lat="47.15035" lon="4.6433">
        <ele>501.5057947107</ele>
        <time>2022-03-23T18:04:01.343Z</time>
      </trkpt>
      <trkpt lat="47.15049" lon="4.64314">
        <ele>501.12135691397</ele>
        <time>2022-03-23T18:04:14.535Z</time>
      </trkpt>
      <trkpt lat="47.1506" lon="4.64296">
        <ele>500.60054590425</ele>
        <time>2022-03-23T18:04:27.749Z</time>
      </trkpt>
      <trkpt lat="47.15084" lon="4.6427">
        <ele>500.1165976163</ele>
        <time>2022-03-23T18:04:41.003Z</time>
      </trkpt>
      <trkpt lat="47.15102" lon="4.64256">
        <ele>499.79727136243</ele>
        <time>2022-03-23T18:04:54.284Z</time>
      </trkpt>
      <trkpt lat="47.15135" lon="4.64236">
        <ele>499.30642154347</ele>
        <time>2022-03-23T18:05:07.613Z</time>
      </trkpt>
      <trkpt lat="47.15167" lon="4.64225">
        <ele>498.89869752566</ele>
        <time>2022-03-23T18:05:20.986Z</time>
      </trkpt>
      <trkpt lat="47.15209" lon="4.64214">
        <ele>498.36832318209</ele>
        <time>2022-03-23T18:05:34.415Z</time>
      </trkpt>
      <trkpt lat="47.15234" lon="4.64204">
        <ele>497.74970109185</ele>
        <time>2022-03-23T18:05:47.879Z</time>
      </trkpt>
      <trkpt lat="47.15245" lon="4.64197">
        <ele>497.03360739936</ele>
        <time>2022-03-23T18:06:01.359Z</time>
      </trkpt>
      <trkpt lat="47.15294" lon="4.64169">
        <ele>496.10766849147</ele>
        <time>2022-03-23T18:06:14.909Z</time>
      </trkpt>
      <trkpt lat="47.15325" lon="4.64157">
        <ele>495.09552135852</ele>
        <time>2022-03-23T18:06:28.502Z</time>
      </trkpt>
      <trkpt lat="47.15331" lon="4.64157">
        <ele>494.18838864498</ele>
        <time>2022-03-23T18:06:42.103Z</time>
      </trkpt>
      <trkpt lat="47.15397" lon="4.64162">
        <ele>493.23737897048</ele>
        <time>2022-03-23T18:06:55.792Z</time>
      </trkpt>
      <trkpt lat="47.15428" lon="4.64165">
        <ele>492.14711441713</ele>
        <time>2022-03-23T18:07:09.523Z</time>
      </trkpt>
      <trkpt lat="47.15444" lon="4.64143">
        <ele>490.71270108645</ele>
        <time>2022-03-23T18:07:23.283Z</time>
      </trkpt>
      <trkpt lat="47.15459" lon="4.64128">
        <ele>489.28549463953</ele>
        <time>2022-03-23T18:07:37.067Z</time>
      </trkpt>
      <trkpt lat="47.15485" lon="4.6411">
        <ele>487.81525436211</ele>
        <time>2022-03-23T18:07:50.889Z</time>
      </trkpt>
      <trkpt lat="47.15544" lon="4.64085">
        <ele>486.24511980769</ele>
        <time>2022-03-23T18:08:04.793Z</time>
      </trkpt>
      <trkpt lat="47.15579" lon="4.64071">
        <ele>484.6266179491</ele>
        <time>2022-03-23T18:08:18.746Z</time>
      </trkpt>
      <trkpt lat="47.15605" lon="4.64064">
        <ele>483.11698540194</ele>
        <time>2022-03-23T18:08:32.734Z</time>
      </trkpt>
      <trkpt lat="47.15614" lon="4.64063">
        <ele>481.54085853828</ele>
        <time>2022-03-23T18:08:46.734Z</time>
      </trkpt>
      <trkpt lat="47.15622" lon="4.64063">
        <ele>479.93959793798</ele>
        <time>2022-03-23T18:09:00.745Z</time>
      </trkpt>
      <trkpt lat="47.15628" lon="4.64058">
        <ele>478.2266129741</ele>
        <time>2022-03-23T18:09:14.765Z</time>
      </trkpt>
      <trkpt lat="47.15632" lon="4.64052">
        <ele>476.45124854534</ele>
        <time>2022-03-23T18:09:28.793Z</time>
      </trkpt>
      <trkpt lat="47.15637" lon="4.64036">
        <ele>474.45798847565</ele>
        <time>2022-03-23T18:09:42.837Z</time>
      </trkpt>
      <trkpt lat="47.15639" lon="4.6401">
        <ele>472.3536321223</ele>
        <time>2022-03-23T18:09:56.904Z</time>
      </trkpt>
      <trkpt lat="47.1564" lon="4.6401">
        <ele>470.56511276179</ele>
        <time>2022-03-23T18:10:10.973Z</time>
      </trkpt>
      <trkpt lat="47.1564" lon="4.6401">
        <ele>468.70846844662</ele>
        <time>2022-03-23T18:10:25.042Z</time>
      </trkpt>
      <trkpt lat="47.1564" lon="4.64009">
        <ele>464.70705886758</ele>
        <time>2022-03-23T18:10:39.112Z</time>
      </trkpt>
      <trkpt lat="47.15639" lon="4.63997">
        <ele>460.11455410204</ele>
        <time>2022-03-23T18:10:53.193Z</time>
      </trkpt>
      <trkpt lat="47.15641" lon="4.63954">
        <ele>454.70202484696</ele>
        <time>2022-03-23T18:11:07.313Z</time>
      </trkpt>
      <trkpt lat="47.15646" lon="4.63926">
        <ele>448.6704717339</ele>
        <time>2022-03-23T18:11:21.459Z</time>
      </trkpt>
      <trkpt lat="47.15651" lon="4.63895">
        <ele>441.78317855624</ele>
        <time>2022-03-23T18:11:35.634Z</time>
      </trkpt>
      <trkpt lat="47.15665" lon="4.63838">
        <ele>434.13729575</ele>
        <time>2022-03-23T18:11:49.864Z</time>
      </trkpt>
      <trkpt lat="47.15685" lon="4.63755">
        <ele>425.69539128609</ele>
        <time>2022-03-23T18:12:04.174Z</time>
      </trkpt>
      <trkpt lat="47.15712" lon="4.6363">
        <ele>416.64942014473</ele>
        <time>2022-03-23T18:12:18.604Z</time>
      </trkpt>
      <trkpt lat="47.15741" lon="4.63488">
        <ele>408.1879111859</ele>
        <time>2022-03-23T18:12:33.169Z</time>
      </trkpt>
      <trkpt lat="47.15778" lon="4.63324">
        <ele>400.5893068292</ele>
        <time>2022-03-23T18:12:47.891Z</time>
      </trkpt>
      <trkpt lat="47.15716" lon="4.63275">
        <ele>394.94084506079</ele>
        <time>2022-03-23T18:13:02.707Z</time>
      </trkpt>
      <trkpt lat="47.15706" lon="4.63264">
        <ele>390.61494625106</ele>
        <time>2022-03-23T18:13:17.540Z</time>
      </trkpt>
      <trkpt lat="47.15694" lon="4.63235">
        <ele>387.60116296561</ele>
        <time>2022-03-23T18:13:32.403Z</time>
      </trkpt>
      <trkpt lat="47.15681" lon="4.63189">
        <ele>385.78369181323</ele>
        <time>2022-03-23T18:13:47.312Z</time>
      </trkpt>
      <trkpt lat="47.15677" lon="4.63166">
        <ele>385.08493619607</ele>
        <time>2022-03-23T18:14:02.242Z</time>
      </trkpt>
      <trkpt lat="47.15682" lon="4.63122">
        <ele>385.28630361965</ele>
        <time>2022-03-23T18:14:17.213Z</time>
      </trkpt>
      <trkpt lat="47.15686" lon="4.63079">
        <ele>386.11901363013</ele>
        <time>2022-03-23T18:14:32.223Z</time>
      </trkpt>
      <trkpt lat="47.15686" lon="4.63063">
        <ele>387.28480291394</ele>
        <time>2022-03-23T18:14:47.248Z</time>
      </trkpt>
      <trkpt lat="47.15683" lon="4.63045">
        <ele>388.62819948013</ele>
        <time>2022-03-23T18:15:02.290Z</time>
      </trkpt>
      <trkpt lat="47.15658" lon="4.6305">
        <ele>390.11279302665</ele>
        <time>2022-03-23T18:15:17.365Z</time>
      </trkpt>
      <trkpt lat="47.15648" lon="4.63051">
        <ele>391.60497683188</ele>
        <time>2022-03-23T18:15:32.454Z</time>
      </trkpt>
      <trkpt lat="47.15633" lon="4.63049">
        <ele>392.97431919326</ele>
        <time>2022-03-23T18:15:47.563Z</time>
      </trkpt>
      <trkpt lat="47.1561" lon="4.63039">
        <ele>394.33313805354</ele>
        <time>2022-03-23T18:16:02.704Z</time>
      </trkpt>
      <trkpt lat="47.15588" lon="4.63025">
        <ele>395.52194118988</ele>
        <time>2022-03-23T18:16:17.877Z</time>
      </trkpt>
      <trkpt lat="47.15553" lon="4.62989">
        <ele>396.57546273987</ele>
        <time>2022-03-23T18:16:33.107Z</time>
      </trkpt>
      <trkpt lat="47.15538" lon="4.62971">
        <ele>397.44632484964</ele>
        <time>2022-03-23T18:16:48.363Z</time>
      </trkpt>
      <trkpt lat="47.15509" lon="4.62936">
        <ele>398.2309942797</ele>
        <time>2022-03-23T18:17:03.669Z</time>
      </trkpt>
      <trkpt lat="47.15493" lon="4.6292">
        <ele>398.84371760649</ele>
        <time>2022-03-23T18:17:19.001Z</time>
      </trkpt>
      <trkpt lat="47.15479" lon="4.62914">
        <ele>399.32871547967</ele>
        <time>2022-03-23T18:17:34.352Z</time>
      </trkpt>
      <trkpt lat="47.1546" lon="4.62909">
        <ele>399.79435136043</ele>
        <time>2022-03-23T18:17:49.729Z</time>
      </trkpt>
      <trkpt lat="47.15447" lon="4.62905">
        <ele>400.26873657716</ele>
        <time>2022-03-23T18:18:05.124Z</time>
      </trkpt>
      <trkpt lat="47.15444" lon="4.62902">
        <ele>400.72599601116</ele>
        <time>2022-03-23T18:18:20.524Z</time>
      </trkpt>
      <trkpt lat="47.15429" lon="4.62882">
        <ele>401.28260792671</ele>
        <time>2022-03-23T18:18:35.951Z</time>
      </trkpt>
      <trkpt lat="47.15415" lon="4.62868">
        <ele>402.0024700983</ele>
        <time>2022-03-23T18:18:51.400Z</time>
      </trkpt>
      <trkpt lat="47.15394" lon="4.62853">
        <ele>402.80546466567</ele>
        <time>2022-03-23T18:19:06.880Z</time>
      </trkpt>
      <trkpt lat="47.15361" lon="4.62833">
        <ele>403.69579096751</ele>
        <time>2022-03-23T18:19:22.408Z</time>
      </trkpt>
      <trkpt lat="47.15301" lon="4.62796">
        <ele>404.65297359041</ele>
        <time>2022-03-23T18:19:38.023Z</time>
      </trkpt>
      <trkpt lat="47.15265" lon="4.62775">
        <ele>405.54761448523</ele>
        <time>2022-03-23T18:19:53.690Z</time>
      </trkpt>
      <trkpt lat="47.15243" lon="4.62761">
        <ele>406.32489973523</ele>
        <time>2022-03-23T18:20:09.389Z</time>
      </trkpt>
      <trkpt lat="47.15235" lon="4.62753">
        <ele>406.8440575462</ele>
        <time>2022-03-23T18:20:25.100Z</time>
      </trkpt>
      <trkpt lat="47.15227" lon="4.62744">
        <ele>407.19242026372</ele>
        <time>2022-03-23T18:20:40.825Z</time>
      </trkpt>
      <trkpt lat="47.15207" lon="4.62719">
        <ele>407.37294140897</ele>
        <time>2022-03-23T18:20:56.585Z</time>
      </trkpt>
      <trkpt lat="47.1519" lon="4.62706">
        <ele>407.44693275194</ele>
        <time>2022-03-23T18:21:12.371Z</time>
      </trkpt>
      <trkpt lat="47.15163" lon="4.62692">
        <ele>407.23246559223</ele>
        <time>2022-03-23T18:21:28.195Z</time>
      </trkpt>
      <trkpt lat="47.15104" lon="4.6268">
        <ele>406.79075287618</ele>
        <time>2022-03-23T18:21:44.098Z</time>
      </trkpt>
      <trkpt lat="47.15064" lon="4.6267">
        <ele>406.68662455832</ele>
        <time>2022-03-23T18:22:00.055Z</time>
      </trkpt>
      <trkpt lat="47.15033" lon="4.62659">
        <ele>406.8896647903</ele>
        <time>2022-03-23T18:22:16.055Z</time>
      </trkpt>
      <trkpt lat="47.14995" lon="4.62646">
        <ele>407.36375330795</ele>
        <time>2022-03-23T18:22:32.107Z</time>
      </trkpt>
      <trkpt lat="47.14947" lon="4.62632">
        <ele>408.30520539299</ele>
        <time>2022-03-23T18:22:48.224Z</time>
      </trkpt>
      <trkpt lat="47.14913" lon="4.62624">
        <ele>409.03803306006</ele>
        <time>2022-03-23T18:23:04.387Z</time>
      </trkpt>
      <trkpt lat="47.14918" lon="4.62602">
        <ele>408.99098881504</ele>
        <time>2022-03-23T18:23:20.571Z</time>
      </trkpt>
      <trkpt lat="47.14921" lon="4.62581">
        <ele>408.98628043877</ele>
        <time>2022-03-23T18:23:36.775Z</time>
      </trkpt>
    </trkseg>
  </trk>
</gpx>